CTH5 weather

Public forecast

Using degrees Celsius for public forecast. Weather courtesy of forecast.io.

Closest aviation weather report (METAR) to Harrington Harbour Heliport

Closest report is Natashquan Airport, 90.3 nm (167.3 km) W. Retrieved 2020/08/13 17:00 UTC (34 minutes ago):

CYNA 131700Z AUTO 26015KT 9SM CLR 23/18 A2989 RMK SLP122 DENSITY ALT 1000FT

Closest aviation forecast (TAF) to Harrington Harbour Heliport

Closest forecast is Natashquan Airport, 90.3 nm (167.3 km) W. Retrieved 2020/08/13 14:00 UTC (4 hours ago):

TAF CYNA 131338Z 1314/1402 FCST NOT AVBL DUE SENSORS INOP RMK FCST BASED ON AUTO OBS NXT FCST BY 132000Z